sensor_id;sensor_type;location;lat;lon;timestamp;P1;durP1;ratioP1;P2;durP2;ratioP2
33327;SDS011;19692;52.998;9.116;2024-03-23T00:56:18;26.67;;;7.23;;
33327;SDS011;19692;52.998;9.116;2024-03-23T00:58:44;27.10;;;6.60;;
33327;SDS011;19692;52.998;9.116;2024-03-23T01:01:09;26.87;;;5.97;;
33327;SDS011;19692;52.998;9.116;2024-03-23T01:03:35;23.77;;;6.07;;
33327;SDS011;19692;52.998;9.116;2024-03-23T01:06:01;23.93;;;5.70;;
33327;SDS011;19692;52.998;9.116;2024-03-23T01:08:28;23.87;;;5.80;;
33327;SDS011;19692;52.998;9.116;2024-03-23T01:10:54;19.90;;;6.23;;
33327;SDS011;19692;52.998;9.116;2024-03-23T01:13:23;29.43;;;5.80;;
33327;SDS011;19692;52.998;9.116;2024-03-23T01:15:49;20.83;;;6.10;;
33327;SDS011;19692;52.998;9.116;2024-03-23T01:18:16;25.90;;;6.70;;
33327;SDS011;19692;52.998;9.116;2024-03-23T01:20:43;21.30;;;5.83;;
33327;SDS011;19692;52.998;9.116;2024-03-23T01:23:09;22.87;;;6.00;;
33327;SDS011;19692;52.998;9.116;2024-03-23T01:25:34;19.13;;;5.80;;
33327;SDS011;19692;52.998;9.116;2024-03-23T01:28:00;19.60;;;5.93;;
33327;SDS011;19692;52.998;9.116;2024-03-23T01:30:25;16.43;;;5.13;;
33327;SDS011;19692;52.998;9.116;2024-03-23T01:32:51;26.23;;;5.73;;
33327;SDS011;19692;52.998;9.116;2024-03-23T01:35:16;26.60;;;6.67;;
33327;SDS011;19692;52.998;9.116;2024-03-23T01:37:42;25.50;;;6.20;;
33327;SDS011;19692;52.998;9.116;2024-03-23T01:40:07;23.67;;;6.53;;
33327;SDS011;19692;52.998;9.116;2024-03-23T01:42:33;17.63;;;5.70;;
33327;SDS011;19692;52.998;9.116;2024-03-23T01:44:59;28.77;;;6.70;;
33327;SDS011;19692;52.998;9.116;2024-03-23T01:47:24;22.70;;;6.27;;
33327;SDS011;19692;52.998;9.116;2024-03-23T01:49:50;22.73;;;6.40;;
33327;SDS011;19692;52.998;9.116;2024-03-23T01:52:16;23.87;;;6.70;;
33327;SDS011;19692;52.998;9.116;2024-03-23T01:54:42;24.77;;;6.30;;
33327;SDS011;19692;52.998;9.116;2024-03-23T01:57:10;31.67;;;6.50;;
33327;SDS011;19692;52.998;9.116;2024-03-23T01:59:36;25.40;;;6.73;;
33327;SDS011;19692;52.998;9.116;2024-03-23T02:02:01;29.20;;;6.63;;
33327;SDS011;19692;52.998;9.116;2024-03-23T02:04:27;22.53;;;6.57;;
33327;SDS011;19692;52.998;9.116;2024-03-23T02:06:52;26.50;;;6.10;;
33327;SDS011;19692;52.998;9.116;2024-03-23T02:09:18;26.20;;;7.07;;
33327;SDS011;19692;52.998;9.116;2024-03-23T02:11:43;27.73;;;7.03;;
33327;SDS011;19692;52.998;9.116;2024-03-23T02:14:09;24.20;;;6.20;;
33327;SDS011;19692;52.998;9.116;2024-03-23T02:16:38;25.27;;;6.37;;
33327;SDS011;19692;52.998;9.116;2024-03-23T02:19:03;34.00;;;6.63;;
33327;SDS011;19692;52.998;9.116;2024-03-23T02:21:29;20.37;;;5.93;;
33327;SDS011;19692;52.998;9.116;2024-03-23T02:26:48;24.07;;;7.50;;
33327;SDS011;19692;52.998;9.116;2024-03-23T02:29:14;22.03;;;6.20;;
33327;SDS011;19692;52.998;9.116;2024-03-23T02:31:39;29.63;;;7.13;;
33327;SDS011;19692;52.998;9.116;2024-03-23T02:34:05;31.57;;;7.23;;
33327;SDS011;19692;52.998;9.116;2024-03-23T02:36:34;27.47;;;7.37;;
33327;SDS011;19692;52.998;9.116;2024-03-23T02:38:59;18.97;;;5.87;;
33327;SDS011;19692;52.998;9.116;2024-03-23T02:41:25;26.93;;;6.80;;
33327;SDS011;19692;52.998;9.116;2024-03-23T02:43:51;25.93;;;6.30;;
33327;SDS011;19692;52.998;9.116;2024-03-23T02:46:17;22.07;;;6.77;;
33327;SDS011;19692;52.998;9.116;2024-03-23T02:48:43;22.87;;;6.93;;
33327;SDS011;19692;52.998;9.116;2024-03-23T02:51:08;24.33;;;6.57;;
33327;SDS011;19692;52.998;9.116;2024-03-23T02:53:34;25.03;;;6.53;;
33327;SDS011;19692;52.998;9.116;2024-03-23T02:56:00;22.37;;;6.50;;
33327;SDS011;19692;52.998;9.116;2024-03-23T02:58:25;23.70;;;5.27;;
33327;SDS011;19692;52.998;9.116;2024-03-23T03:00:51;23.30;;;6.57;;
33327;SDS011;19692;52.998;9.116;2024-03-23T03:03:16;24.37;;;7.10;;
33327;SDS011;19692;52.998;9.116;2024-03-23T03:05:42;21.57;;;6.30;;
33327;SDS011;19692;52.998;9.116;2024-03-23T03:08:08;26.50;;;7.20;;
33327;SDS011;19692;52.998;9.116;2024-03-23T03:10:33;21.93;;;6.87;;
33327;SDS011;19692;52.998;9.116;2024-03-23T03:13:01;25.97;;;6.40;;
33327;SDS011;19692;52.998;9.116;2024-03-23T03:15:27;25.97;;;6.60;;
33327;SDS011;19692;52.998;9.116;2024-03-23T03:17:52;25.63;;;6.50;;
33327;SDS011;19692;52.998;9.116;2024-03-23T03:20:18;28.27;;;6.93;;
33327;SDS011;19692;52.998;9.116;2024-03-23T03:22:43;26.63;;;7.07;;
33327;SDS011;19692;52.998;9.116;2024-03-23T03:25:09;27.23;;;7.17;;
33327;SDS011;19692;52.998;9.116;2024-03-23T03:27:34;29.13;;;7.17;;
33327;SDS011;19692;52.998;9.116;2024-03-23T03:30:00;31.40;;;6.77;;
33327;SDS011;19692;52.998;9.116;2024-03-23T03:32:30;24.27;;;7.10;;
33327;SDS011;19692;52.998;9.116;2024-03-23T03:34:55;23.53;;;6.67;;
33327;SDS011;19692;52.998;9.116;2024-03-23T03:37:21;23.93;;;6.80;;
33327;SDS011;19692;52.998;9.116;2024-03-23T03:39:46;23.53;;;6.47;;
33327;SDS011;19692;52.998;9.116;2024-03-23T03:42:12;22.17;;;6.47;;
33327;SDS011;19692;52.998;9.116;2024-03-23T08:59:19;12.30;;;4.70;;
33327;SDS011;19692;52.998;9.116;2024-03-23T09:01:45;20.13;;;4.87;;
33327;SDS011;19692;52.998;9.116;2024-03-23T09:04:10;13.20;;;5.27;;
33327;SDS011;19692;52.998;9.116;2024-03-23T09:06:36;18.20;;;5.27;;
33327;SDS011;19692;52.998;9.116;2024-03-23T09:09:01;17.53;;;4.77;;
33327;SDS011;19692;52.998;9.116;2024-03-23T09:11:27;11.00;;;4.47;;
33327;SDS011;19692;52.998;9.116;2024-03-23T09:13:53;13.10;;;4.10;;
33327;SDS011;19692;52.998;9.116;2024-03-23T09:16:18;12.73;;;3.90;;
33327;SDS011;19692;52.998;9.116;2024-03-23T09:18:44;13.77;;;3.97;;
33327;SDS011;19692;52.998;9.116;2024-03-23T09:21:13;15.77;;;4.57;;
33327;SDS011;19692;52.998;9.116;2024-03-23T09:23:39;15.77;;;4.33;;
33327;SDS011;19692;52.998;9.116;2024-03-23T09:26:05;13.80;;;4.10;;
33327;SDS011;19692;52.998;9.116;2024-03-23T09:28:33;11.20;;;4.40;;
33327;SDS011;19692;52.998;9.116;2024-03-23T09:31:03;15.13;;;4.43;;
33327;SDS011;19692;52.998;9.116;2024-03-23T09:33:32;11.00;;;3.90;;
33327;SDS011;19692;52.998;9.116;2024-03-23T09:36:02;8.17;;;3.33;;
33327;SDS011;19692;52.998;9.116;2024-03-23T09:38:28;14.70;;;3.63;;
33327;SDS011;19692;52.998;9.116;2024-03-23T09:40:54;9.83;;;3.77;;
33327;SDS011;19692;52.998;9.116;2024-03-23T09:43:20;12.57;;;3.80;;
33327;SDS011;19692;52.998;9.116;2024-03-23T09:45:46;10.43;;;3.10;;
33327;SDS011;19692;52.998;9.116;2024-03-23T09:48:12;13.53;;;3.73;;
33327;SDS011;19692;52.998;9.116;2024-03-23T09:50:44;14.33;;;3.67;;
33327;SDS011;19692;52.998;9.116;2024-03-23T09:53:11;11.50;;;3.50;;
33327;SDS011;19692;52.998;9.116;2024-03-23T09:55:39;8.83;;;3.70;;
33327;SDS011;19692;52.998;9.116;2024-03-23T10:50:54;5.17;;;2.67;;
33327;SDS011;19692;52.998;9.116;2024-03-23T10:53:21;6.47;;;3.53;;
33327;SDS011;19692;52.998;9.116;2024-03-23T10:55:50;8.00;;;3.30;;
33327;SDS011;19692;52.998;9.116;2024-03-23T10:58:16;8.43;;;3.57;;
33327;SDS011;19692;52.998;9.116;2024-03-23T11:00:46;6.67;;;3.30;;
33327;SDS011;19692;52.998;9.116;2024-03-23T11:06:03;9.80;;;3.60;;
33327;SDS011;19692;52.998;9.116;2024-03-23T11:08:30;6.53;;;3.07;;
33327;SDS011;19692;52.998;9.116;2024-03-23T11:11:13;6.03;;;3.53;;
33327;SDS011;19692;52.998;9.116;2024-03-23T11:13:39;4.90;;;2.93;;
33327;SDS011;19692;52.998;9.116;2024-03-23T11:16:12;9.47;;;3.37;;
33327;SDS011;19692;52.998;9.116;2024-03-23T11:18:48;6.23;;;3.20;;
33327;SDS011;19692;52.998;9.116;2024-03-23T11:24:19;10.90;;;3.70;;
33327;SDS011;19692;52.998;9.116;2024-03-23T11:26:45;11.53;;;3.93;;
33327;SDS011;19692;52.998;9.116;2024-03-23T11:29:12;7.53;;;2.80;;
33327;SDS011;19692;52.998;9.116;2024-03-23T11:31:38;7.27;;;3.23;;
33327;SDS011;19692;52.998;9.116;2024-03-23T11:34:10;7.97;;;2.90;;
33327;SDS011;19692;52.998;9.116;2024-03-23T11:36:35;7.17;;;2.80;;
33327;SDS011;19692;52.998;9.116;2024-03-23T11:39:11;5.37;;;2.43;;
33327;SDS011;19692;52.998;9.116;2024-03-23T11:41:44;7.20;;;2.50;;
33327;SDS011;19692;52.998;9.116;2024-03-23T11:44:22;8.10;;;2.40;;
33327;SDS011;19692;52.998;9.116;2024-03-23T11:46:49;2.83;;;1.80;;
33327;SDS011;19692;52.998;9.116;2024-03-23T11:51:51;3.50;;;1.93;;
33327;SDS011;19692;52.998;9.116;2024-03-23T11:54:25;7.00;;;2.00;;
33327;SDS011;19692;52.998;9.116;2024-03-23T11:59:33;5.77;;;2.17;;
33327;SDS011;19692;52.998;9.116;2024-03-23T12:01:59;6.87;;;2.30;;
33327;SDS011;19692;52.998;9.116;2024-03-23T12:04:26;5.03;;;2.10;;
33327;SDS011;19692;52.998;9.116;2024-03-23T12:09:44;4.93;;;2.20;;
33327;SDS011;19692;52.998;9.116;2024-03-23T12:12:14;3.90;;;2.00;;
33327;SDS011;19692;52.998;9.116;2024-03-23T12:14:43;4.33;;;2.40;;
33327;SDS011;19692;52.998;9.116;2024-03-23T12:17:13;3.10;;;1.90;;
33327;SDS011;19692;52.998;9.116;2024-03-23T12:19:40;4.67;;;2.50;;
33327;SDS011;19692;52.998;9.116;2024-03-23T12:22:07;4.87;;;2.40;;
33327;SDS011;19692;52.998;9.116;2024-03-23T12:24:33;7.03;;;2.40;;
33327;SDS011;19692;52.998;9.116;2024-03-23T12:27:03;5.50;;;2.43;;
33327;SDS011;19692;52.998;9.116;2024-03-23T12:29:32;5.80;;;2.73;;
33327;SDS011;19692;52.998;9.116;2024-03-23T12:32:01;6.50;;;2.20;;
33327;SDS011;19692;52.998;9.116;2024-03-23T12:34:27;6.13;;;2.40;;
33327;SDS011;19692;52.998;9.116;2024-03-23T12:36:53;4.37;;;2.50;;
33327;SDS011;19692;52.998;9.116;2024-03-23T12:39:19;5.23;;;2.40;;
33327;SDS011;19692;52.998;9.116;2024-03-23T12:41:48;8.03;;;2.50;;
33327;SDS011;19692;52.998;9.116;2024-03-23T12:44:14;7.23;;;2.33;;
33327;SDS011;19692;52.998;9.116;2024-03-23T12:46:40;4.53;;;1.80;;
33327;SDS011;19692;52.998;9.116;2024-03-23T12:49:06;3.13;;;2.00;;
33327;SDS011;19692;52.998;9.116;2024-03-23T12:51:32;3.53;;;2.07;;
33327;SDS011;19692;52.998;9.116;2024-03-23T12:53:58;3.17;;;1.50;;
33327;SDS011;19692;52.998;9.116;2024-03-23T12:56:23;3.50;;;2.10;;
33327;SDS011;19692;52.998;9.116;2024-03-23T12:58:49;5.20;;;1.80;;
33327;SDS011;19692;52.998;9.116;2024-03-23T13:01:19;5.50;;;2.10;;
33327;SDS011;19692;52.998;9.116;2024-03-23T13:03:48;3.67;;;1.87;;
33327;SDS011;19692;52.998;9.116;2024-03-23T13:06:14;6.67;;;2.73;;
33327;SDS011;19692;52.998;9.116;2024-03-23T13:08:40;3.83;;;1.90;;
33327;SDS011;19692;52.998;9.116;2024-03-23T13:11:06;5.90;;;2.50;;
33327;SDS011;19692;52.998;9.116;2024-03-23T13:13:33;5.00;;;2.33;;
33327;SDS011;19692;52.998;9.116;2024-03-23T13:15:59;4.67;;;2.40;;
33327;SDS011;19692;52.998;9.116;2024-03-23T13:18:25;4.70;;;2.67;;
33327;SDS011;19692;52.998;9.116;2024-03-23T13:20:51;4.13;;;2.60;;
33327;SDS011;19692;52.998;9.116;2024-03-23T13:23:17;4.53;;;2.50;;
33327;SDS011;19692;52.998;9.116;2024-03-23T13:25:49;6.53;;;2.93;;
33327;SDS011;19692;52.998;9.116;2024-03-23T13:28:18;4.43;;;2.30;;
33327;SDS011;19692;52.998;9.116;2024-03-23T13:33:19;5.20;;;2.80;;
33327;SDS011;19692;52.998;9.116;2024-03-23T13:35:51;4.67;;;2.00;;
33327;SDS011;19692;52.998;9.116;2024-03-23T13:38:18;3.50;;;1.93;;
33327;SDS011;19692;52.998;9.116;2024-03-23T13:40:54;3.80;;;1.83;;
33327;SDS011;19692;52.998;9.116;2024-03-23T13:43:19;3.97;;;2.00;;
33327;SDS011;19692;52.998;9.116;2024-03-23T13:45:49;2.97;;;1.90;;
33327;SDS011;19692;52.998;9.116;2024-03-23T13:48:25;3.87;;;2.07;;
33327;SDS011;19692;52.998;9.116;2024-03-23T13:51:00;9.07;;;3.13;;
33327;SDS011;19692;52.998;9.116;2024-03-23T13:53:27;5.80;;;2.33;;
33327;SDS011;19692;52.998;9.116;2024-03-23T13:55:53;5.37;;;2.20;;
33327;SDS011;19692;52.998;9.116;2024-03-23T13:58:19;5.43;;;2.57;;
33327;SDS011;19692;52.998;9.116;2024-03-23T14:00:45;3.90;;;1.67;;
33327;SDS011;19692;52.998;9.116;2024-03-23T14:03:11;5.43;;;1.80;;
33327;SDS011;19692;52.998;9.116;2024-03-23T14:05:38;5.30;;;1.83;;
33327;SDS011;19692;52.998;9.116;2024-03-23T14:08:13;5.53;;;2.47;;
33327;SDS011;19692;52.998;9.116;2024-03-23T14:10:41;5.10;;;2.20;;
33327;SDS011;19692;52.998;9.116;2024-03-23T14:13:08;7.20;;;2.40;;
33327;SDS011;19692;52.998;9.116;2024-03-23T14:15:33;4.33;;;2.07;;
33327;SDS011;19692;52.998;9.116;2024-03-23T14:17:59;5.77;;;2.37;;
33327;SDS011;19692;52.998;9.116;2024-03-23T14:20:25;6.40;;;2.20;;
33327;SDS011;19692;52.998;9.116;2024-03-23T14:22:51;5.90;;;2.10;;
33327;SDS011;19692;52.998;9.116;2024-03-23T14:25:17;2.67;;;1.80;;
33327;SDS011;19692;52.998;9.116;2024-03-23T14:27:45;4.00;;;2.33;;
33327;SDS011;19692;52.998;9.116;2024-03-23T14:30:11;5.43;;;2.23;;
33327;SDS011;19692;52.998;9.116;2024-03-23T14:32:38;5.97;;;2.37;;
33327;SDS011;19692;52.998;9.116;2024-03-23T14:35:04;5.40;;;2.20;;
33327;SDS011;19692;52.998;9.116;2024-03-23T14:37:30;3.60;;;2.00;;
33327;SDS011;19692;52.998;9.116;2024-03-23T14:39:56;3.10;;;1.70;;
33327;SDS011;19692;52.998;9.116;2024-03-23T14:42:22;4.13;;;1.70;;
33327;SDS011;19692;52.998;9.116;2024-03-23T14:44:49;5.83;;;2.03;;
33327;SDS011;19692;52.998;9.116;2024-03-23T14:47:14;5.17;;;2.30;;
33327;SDS011;19692;52.998;9.116;2024-03-23T14:49:40;3.17;;;1.90;;
33327;SDS011;19692;52.998;9.116;2024-03-23T14:52:06;5.70;;;2.00;;
33327;SDS011;19692;52.998;9.116;2024-03-23T14:54:33;3.37;;;1.73;;
33327;SDS011;19692;52.998;9.116;2024-03-23T14:57:00;3.97;;;1.87;;
33327;SDS011;19692;52.998;9.116;2024-03-23T14:59:25;4.03;;;2.63;;
33327;SDS011;19692;52.998;9.116;2024-03-23T15:01:51;6.30;;;2.53;;
33327;SDS011;19692;52.998;9.116;2024-03-23T15:04:16;4.63;;;3.10;;
33327;SDS011;19692;52.998;9.116;2024-03-23T15:06:42;4.50;;;2.03;;
33327;SDS011;19692;52.998;9.116;2024-03-23T15:09:08;3.40;;;2.00;;
33327;SDS011;19692;52.998;9.116;2024-03-23T15:11:43;4.67;;;2.40;;
33327;SDS011;19692;52.998;9.116;2024-03-23T15:14:24;7.10;;;3.67;;
33327;SDS011;19692;52.998;9.116;2024-03-23T15:16:52;3.73;;;1.90;;
33327;SDS011;19692;52.998;9.116;2024-03-23T15:19:20;4.20;;;1.83;;
33327;SDS011;19692;52.998;9.116;2024-03-23T15:22:08;5.17;;;1.83;;
33327;SDS011;19692;52.998;9.116;2024-03-23T15:24:37;4.13;;;1.77;;
33327;SDS011;19692;52.998;9.116;2024-03-23T15:27:20;4.83;;;1.90;;
33327;SDS011;19692;52.998;9.116;2024-03-23T15:29:53;6.13;;;1.87;;
33327;SDS011;19692;52.998;9.116;2024-03-23T15:32:52;5.70;;;1.97;;
33327;SDS011;19692;52.998;9.116;2024-03-23T15:35:25;7.37;;;2.00;;
33327;SDS011;19692;52.998;9.116;2024-03-23T15:38:01;9.23;;;2.20;;
33327;SDS011;19692;52.998;9.116;2024-03-23T15:40:26;5.77;;;2.10;;
33327;SDS011;19692;52.998;9.116;2024-03-23T15:42:52;5.77;;;2.47;;
33327;SDS011;19692;52.998;9.116;2024-03-23T15:45:20;7.03;;;2.73;;
33327;SDS011;19692;52.998;9.116;2024-03-23T15:47:47;8.43;;;3.13;;
33327;SDS011;19692;52.998;9.116;2024-03-23T15:50:12;6.93;;;2.73;;
33327;SDS011;19692;52.998;9.116;2024-03-23T15:52:38;9.37;;;3.20;;
33327;SDS011;19692;52.998;9.116;2024-03-23T15:55:03;4.03;;;2.30;;
33327;SDS011;19692;52.998;9.116;2024-03-23T15:57:33;5.93;;;2.70;;
33327;SDS011;19692;52.998;9.116;2024-03-23T15:59:59;5.50;;;2.67;;
33327;SDS011;19692;52.998;9.116;2024-03-23T16:02:24;6.80;;;2.70;;
33327;SDS011;19692;52.998;9.116;2024-03-23T16:04:50;3.73;;;2.37;;
33327;SDS011;19692;52.998;9.116;2024-03-23T16:07:16;4.37;;;2.47;;
33327;SDS011;19692;52.998;9.116;2024-03-23T16:09:41;5.33;;;2.50;;
33327;SDS011;19692;52.998;9.116;2024-03-23T16:12:07;3.30;;;2.50;;
33327;SDS011;19692;52.998;9.116;2024-03-23T16:14:32;4.00;;;2.30;;
33327;SDS011;19692;52.998;9.116;2024-03-23T16:16:58;4.50;;;1.87;;
33327;SDS011;19692;52.998;9.116;2024-03-23T16:19:23;1.93;;;1.53;;
33327;SDS011;19692;52.998;9.116;2024-03-23T16:21:49;3.03;;;1.57;;
33327;SDS011;19692;52.998;9.116;2024-03-23T16:24:14;2.00;;;1.50;;
33327;SDS011;19692;52.998;9.116;2024-03-23T16:26:40;2.93;;;1.40;;
33327;SDS011;19692;52.998;9.116;2024-03-23T16:29:05;1.70;;;1.27;;
33327;SDS011;19692;52.998;9.116;2024-03-23T16:31:32;2.10;;;1.50;;
33327;SDS011;19692;52.998;9.116;2024-03-23T16:33:57;3.23;;;1.50;;
33327;SDS011;19692;52.998;9.116;2024-03-23T16:36:23;3.00;;;1.80;;
33327;SDS011;19692;52.998;9.116;2024-03-23T16:38:50;3.60;;;1.70;;
33327;SDS011;19692;52.998;9.116;2024-03-23T16:41:16;4.13;;;1.50;;
33327;SDS011;19692;52.998;9.116;2024-03-23T16:43:41;2.57;;;1.80;;
33327;SDS011;19692;52.998;9.116;2024-03-23T16:46:08;3.40;;;1.60;;
33327;SDS011;19692;52.998;9.116;2024-03-23T16:48:36;3.27;;;2.00;;
33327;SDS011;19692;52.998;9.116;2024-03-23T16:51:05;5.13;;;1.90;;
33327;SDS011;19692;52.998;9.116;2024-03-23T16:53:32;4.83;;;2.00;;
33327;SDS011;19692;52.998;9.116;2024-03-23T16:56:02;5.03;;;1.93;;
33327;SDS011;19692;52.998;9.116;2024-03-23T16:58:32;5.30;;;2.33;;
33327;SDS011;19692;52.998;9.116;2024-03-23T17:01:06;5.83;;;1.70;;
33327;SDS011;19692;52.998;9.116;2024-03-23T17:03:51;5.23;;;2.27;;
33327;SDS011;19692;52.998;9.116;2024-03-23T17:06:17;3.90;;;1.80;;
33327;SDS011;19692;52.998;9.116;2024-03-23T17:08:44;13.47;;;2.40;;
33327;SDS011;19692;52.998;9.116;2024-03-23T17:11:12;9.43;;;5.17;;
33327;SDS011;19692;52.998;9.116;2024-03-23T17:13:37;6.20;;;2.53;;
33327;SDS011;19692;52.998;9.116;2024-03-23T17:16:03;5.20;;;2.27;;
33327;SDS011;19692;52.998;9.116;2024-03-23T17:18:29;5.07;;;2.30;;
33327;SDS011;19692;52.998;9.116;2024-03-23T17:20:56;3.67;;;2.20;;
33327;SDS011;19692;52.998;9.116;2024-03-23T17:23:23;5.60;;;2.10;;
33327;SDS011;19692;52.998;9.116;2024-03-23T17:25:52;5.90;;;2.10;;
33327;SDS011;19692;52.998;9.116;2024-03-23T17:28:18;9.37;;;2.47;;
33327;SDS011;19692;52.998;9.116;2024-03-23T17:30:43;5.17;;;2.00;;
33327;SDS011;19692;52.998;9.116;2024-03-23T17:33:10;4.93;;;2.00;;
33327;SDS011;19692;52.998;9.116;2024-03-23T17:35:35;5.47;;;2.20;;
33327;SDS011;19692;52.998;9.116;2024-03-23T17:38:01;5.93;;;2.80;;
33327;SDS011;19692;52.998;9.116;2024-03-23T17:40:28;6.67;;;3.20;;
33327;SDS011;19692;52.998;9.116;2024-03-23T17:42:54;4.57;;;2.93;;
33327;SDS011;19692;52.998;9.116;2024-03-23T17:45:20;6.33;;;2.80;;
33327;SDS011;19692;52.998;9.116;2024-03-23T17:47:45;5.37;;;2.90;;
33327;SDS011;19692;52.998;9.116;2024-03-23T17:50:11;6.40;;;2.63;;
33327;SDS011;19692;52.998;9.116;2024-03-23T17:52:36;5.33;;;2.93;;
33327;SDS011;19692;52.998;9.116;2024-03-23T17:55:02;6.57;;;2.90;;
33327;SDS011;19692;52.998;9.116;2024-03-23T17:57:28;7.50;;;2.60;;
33327;SDS011;19692;52.998;9.116;2024-03-23T17:59:54;15.50;;;9.37;;
33327;SDS011;19692;52.998;9.116;2024-03-23T18:02:19;5.90;;;2.53;;
33327;SDS011;19692;52.998;9.116;2024-03-23T18:04:48;7.70;;;2.77;;
33327;SDS011;19692;52.998;9.116;2024-03-23T18:07:16;4.93;;;2.83;;
33327;SDS011;19692;52.998;9.116;2024-03-23T18:09:42;6.10;;;2.67;;
33327;SDS011;19692;52.998;9.116;2024-03-23T18:12:08;6.07;;;2.20;;
33327;SDS011;19692;52.998;9.116;2024-03-23T18:14:34;3.87;;;2.20;;
33327;SDS011;19692;52.998;9.116;2024-03-23T18:16:59;7.10;;;2.43;;
33327;SDS011;19692;52.998;9.116;2024-03-23T18:19:25;3.93;;;2.40;;
33327;SDS011;19692;52.998;9.116;2024-03-23T18:21:50;5.13;;;2.40;;
33327;SDS011;19692;52.998;9.116;2024-03-23T18:24:16;5.53;;;2.77;;
33327;SDS011;19692;52.998;9.116;2024-03-23T18:26:41;5.83;;;2.40;;
33327;SDS011;19692;52.998;9.116;2024-03-23T18:29:07;9.23;;;3.33;;
33327;SDS011;19692;52.998;9.116;2024-03-23T18:31:33;2.70;;;2.30;;
33327;SDS011;19692;52.998;9.116;2024-03-23T18:33:59;6.47;;;2.70;;
33327;SDS011;19692;52.998;9.116;2024-03-23T18:36:26;5.43;;;2.57;;
33327;SDS011;19692;52.998;9.116;2024-03-23T18:38:54;5.83;;;2.73;;
33327;SDS011;19692;52.998;9.116;2024-03-23T18:41:21;4.93;;;2.73;;
33327;SDS011;19692;52.998;9.116;2024-03-23T18:43:47;5.73;;;2.40;;
33327;SDS011;19692;52.998;9.116;2024-03-23T18:46:13;7.57;;;2.97;;
33327;SDS011;19692;52.998;9.116;2024-03-23T18:48:39;5.97;;;2.77;;
33327;SDS011;19692;52.998;9.116;2024-03-23T18:51:06;6.37;;;2.87;;
33327;SDS011;19692;52.998;9.116;2024-03-23T18:53:31;5.90;;;2.77;;
33327;SDS011;19692;52.998;9.116;2024-03-23T18:55:57;4.80;;;2.50;;
33327;SDS011;19692;52.998;9.116;2024-03-23T18:58:25;4.30;;;2.80;;
33327;SDS011;19692;52.998;9.116;2024-03-23T19:00:57;8.77;;;4.67;;
33327;SDS011;19692;52.998;9.116;2024-03-23T19:03:33;7.60;;;4.30;;
33327;SDS011;19692;52.998;9.116;2024-03-23T19:05:59;7.03;;;4.93;;
33327;SDS011;19692;52.998;9.116;2024-03-23T19:08:26;8.13;;;4.53;;
33327;SDS011;19692;52.998;9.116;2024-03-23T19:10:52;5.23;;;3.57;;
33327;SDS011;19692;52.998;9.116;2024-03-23T19:13:25;6.17;;;3.47;;
33327;SDS011;19692;52.998;9.116;2024-03-23T19:15:52;4.70;;;3.10;;
33327;SDS011;19692;52.998;9.116;2024-03-23T19:18:18;4.40;;;3.00;;
33327;SDS011;19692;52.998;9.116;2024-03-23T19:20:50;5.47;;;3.00;;
33327;SDS011;19692;52.998;9.116;2024-03-23T19:23:20;7.07;;;3.27;;
33327;SDS011;19692;52.998;9.116;2024-03-23T19:25:53;7.43;;;3.30;;
33327;SDS011;19692;52.998;9.116;2024-03-23T19:28:25;5.43;;;3.47;;
33327;SDS011;19692;52.998;9.116;2024-03-23T19:30:52;8.40;;;3.93;;
33327;SDS011;19692;52.998;9.116;2024-03-23T19:33:18;8.30;;;3.80;;
33327;SDS011;19692;52.998;9.116;2024-03-23T19:35:44;7.40;;;3.00;;
33327;SDS011;19692;52.998;9.116;2024-03-23T19:38:12;8.70;;;4.00;;
33327;SDS011;19692;52.998;9.116;2024-03-23T19:40:38;9.37;;;3.90;;
33327;SDS011;19692;52.998;9.116;2024-03-23T19:43:04;7.60;;;3.70;;
33327;SDS011;19692;52.998;9.116;2024-03-23T19:45:29;10.47;;;3.50;;
33327;SDS011;19692;52.998;9.116;2024-03-23T19:47:56;9.27;;;3.53;;
33327;SDS011;19692;52.998;9.116;2024-03-23T19:50:21;7.80;;;3.03;;
33327;SDS011;19692;52.998;9.116;2024-03-23T19:52:48;8.20;;;3.30;;
33327;SDS011;19692;52.998;9.116;2024-03-23T19:55:15;6.30;;;3.30;;
33327;SDS011;19692;52.998;9.116;2024-03-23T19:57:41;5.10;;;3.20;;
33327;SDS011;19692;52.998;9.116;2024-03-23T20:00:07;7.83;;;3.23;;
33327;SDS011;19692;52.998;9.116;2024-03-23T20:02:33;9.00;;;4.00;;
33327;SDS011;19692;52.998;9.116;2024-03-23T20:04:59;11.33;;;4.13;;
33327;SDS011;19692;52.998;9.116;2024-03-23T20:07:25;5.53;;;2.90;;
33327;SDS011;19692;52.998;9.116;2024-03-23T20:09:51;6.37;;;3.00;;
33327;SDS011;19692;52.998;9.116;2024-03-23T20:12:16;7.67;;;2.80;;
33327;SDS011;19692;52.998;9.116;2024-03-23T20:14:42;7.23;;;3.17;;
33327;SDS011;19692;52.998;9.116;2024-03-23T20:17:09;10.47;;;3.37;;
33327;SDS011;19692;52.998;9.116;2024-03-23T20:19:35;5.57;;;3.10;;
33327;SDS011;19692;52.998;9.116;2024-03-23T20:22:01;7.47;;;3.40;;
33327;SDS011;19692;52.998;9.116;2024-03-23T20:24:26;9.63;;;2.73;;
33327;SDS011;19692;52.998;9.116;2024-03-23T20:26:53;7.50;;;2.90;;
33327;SDS011;19692;52.998;9.116;2024-03-23T20:29:18;8.07;;;3.03;;
33327;SDS011;19692;52.998;9.116;2024-03-23T20:31:44;7.80;;;3.43;;
33327;SDS011;19692;52.998;9.116;2024-03-23T20:34:10;7.77;;;3.50;;
33327;SDS011;19692;52.998;9.116;2024-03-23T20:36:35;6.20;;;2.80;;
33327;SDS011;19692;52.998;9.116;2024-03-23T20:39:01;7.93;;;3.70;;
33327;SDS011;19692;52.998;9.116;2024-03-23T20:41:28;8.80;;;3.33;;
33327;SDS011;19692;52.998;9.116;2024-03-23T20:43:53;11.00;;;3.10;;
33327;SDS011;19692;52.998;9.116;2024-03-23T20:46:19;8.33;;;2.50;;
33327;SDS011;19692;52.998;9.116;2024-03-23T20:48:47;7.37;;;3.00;;
33327;SDS011;19692;52.998;9.116;2024-03-23T20:51:16;7.90;;;2.97;;
33327;SDS011;19692;52.998;9.116;2024-03-23T20:53:42;8.87;;;2.97;;
33327;SDS011;19692;52.998;9.116;2024-03-23T20:56:08;10.03;;;3.10;;
33327;SDS011;19692;52.998;9.116;2024-03-23T20:58:34;7.77;;;3.27;;
33327;SDS011;19692;52.998;9.116;2024-03-23T21:01:03;5.70;;;3.20;;
33327;SDS011;19692;52.998;9.116;2024-03-23T21:03:30;10.60;;;2.80;;
33327;SDS011;19692;52.998;9.116;2024-03-23T21:05:56;4.97;;;2.87;;
33327;SDS011;19692;52.998;9.116;2024-03-23T21:08:22;4.57;;;3.03;;
33327;SDS011;19692;52.998;9.116;2024-03-23T21:10:48;9.77;;;3.33;;
33327;SDS011;19692;52.998;9.116;2024-03-23T21:13:15;8.10;;;2.90;;
33327;SDS011;19692;52.998;9.116;2024-03-23T21:15:47;8.90;;;2.80;;
33327;SDS011;19692;52.998;9.116;2024-03-23T21:18:17;10.00;;;2.90;;
33327;SDS011;19692;52.998;9.116;2024-03-23T21:20:43;6.23;;;3.20;;
33327;SDS011;19692;52.998;9.116;2024-03-23T21:23:09;8.77;;;3.13;;
33327;SDS011;19692;52.998;9.116;2024-03-23T21:25:35;43.43;;;25.53;;
33327;SDS011;19692;52.998;9.116;2024-03-23T21:28:00;8.87;;;3.80;;
33327;SDS011;19692;52.998;9.116;2024-03-23T21:30:26;7.37;;;3.87;;
33327;SDS011;19692;52.998;9.116;2024-03-23T21:32:51;5.67;;;3.23;;
33327;SDS011;19692;52.998;9.116;2024-03-23T21:35:17;7.50;;;3.70;;
33327;SDS011;19692;52.998;9.116;2024-03-23T21:37:45;6.83;;;3.53;;
33327;SDS011;19692;52.998;9.116;2024-03-23T21:40:11;12.07;;;3.73;;
33327;SDS011;19692;52.998;9.116;2024-03-23T21:42:36;6.00;;;3.40;;
33327;SDS011;19692;52.998;9.116;2024-03-23T21:45:02;9.97;;;3.57;;
33327;SDS011;19692;52.998;9.116;2024-03-23T21:47:27;6.40;;;3.23;;
33327;SDS011;19692;52.998;9.116;2024-03-23T21:49:53;6.60;;;3.13;;
33327;SDS011;19692;52.998;9.116;2024-03-23T21:52:19;5.60;;;3.40;;
33327;SDS011;19692;52.998;9.116;2024-03-23T21:54:45;6.10;;;3.17;;
33327;SDS011;19692;52.998;9.116;2024-03-23T21:57:11;7.90;;;3.13;;
33327;SDS011;19692;52.998;9.116;2024-03-23T21:59:37;6.87;;;3.30;;
33327;SDS011;19692;52.998;9.116;2024-03-23T22:02:02;6.57;;;3.60;;
33327;SDS011;19692;52.998;9.116;2024-03-23T22:04:28;8.77;;;3.57;;